新東京国際空港の過去48時間の天気

新東京国際空港 (Tokyo/New Tokyo Intl)

現在時刻: 5/31 19:33 JST (5/31 10:33 UTC) 以下の時間は現地時間です。

過去48時間のMETAR気象情報
時間 風向 風速(m/s) 視程 気温(℃) 湿度(%) 気圧(hPa) 天気現象
31 19:00 3 10km以上 20 83 1017
31 18:30 4 10km以上 20 83 1017
31 18:00 南南東 4 10km以上 21 78 1017
31 17:30 南南東 5 10km以上 21 78 1017
31 17:00 南南東 6 10km以上 21 73 1017
31 16:30 南南東 6 10km以上 22 73 1017
31 16:00 南南東 5 10km以上 21 78 1017
31 15:30 南南東 4 10km以上 22 73 1017
31 15:00 南南東 6 10km以上 22 73 1017
31 14:30 南南東 6 10km以上 22 73 1018
31 14:00 5 10km以上 23 69 1018
31 13:30 南南東 6 10km以上 23 69 1018
31 13:00 5 10km以上 23 73 1018
31 12:30 南南東 6 10km以上 23 69 1019
31 12:00 南南東 6 10km以上 23 69 1019
31 11:30 南南東 6 10km以上 23 69 1020
31 11:00 6 10km以上 23 69 1020
31 10:30 南南東 5 10km以上 23 69 1020
31 10:00 5 10km以上 22 73 1020
31 09:30 4 10km以上 22 73 1020
31 09:00 南南東 5 10km以上 22 73 1020
31 08:30 南南東 5 10km以上 22 78 1020
31 08:00 南東 3 10km以上 21 88 1020
31 07:30 南南東 3 10km以上 20 94 1020
31 07:00 南東 2 10km以上 19 94 1020
31 06:30 南東 2 10km以上 18 100 1020
31 06:00 南東 1 10km以上 17 100 1021
31 05:30 南東 2 10km以上 16 100 1020
31 05:00 南東 2 10km以上 16 100 1020
31 04:30 南東 2 10km以上 15 100 1020 地霧
RJAA 311000Z 18006KT 9999 FEW025 BKN100 BKN150 20/17 Q1017 NOSIG RMK 1CU025 6AC100 7AC150 A3006
RJAA 310930Z 17008KT 9999 FEW025 BKN100 BKN150 20/17 Q1017 NOSIG RMK 2CU025 5AC100 7AC150 A3005
RJAA 310900Z 16008KT 9999 FEW025 BKN120 BKN/// 21/17 Q1017 NOSIG RMK 1CU025 5AC120 A3005
RJAA 310830Z 16009KT 9999 FEW025 BKN130 BKN/// 21/17 Q1017 NOSIG RMK 1CU025 5AC130 A3004
RJAA 310800Z 16011KT 9999 FEW025 BKN130 BKN/// 21/16 Q1017 NOSIG RMK 1CU025 5AC130 A3004
RJAA 310730Z 16011KT 130V190 9999 FEW025 BKN110 BKN/// 22/17 Q1017 NOSIG
RJAA 310700Z 16010KT 9999 FEW025 BKN110 21/17 Q1017 NOSIG RMK 1CU025 7AC110 A3005
RJAA 310630Z 15008KT 9999 FEW025 BKN120 22/17 Q1017 NOSIG RMK 1CU025 7AC120 A3005
RJAA 310600Z 15011KT 9999 FEW025 BKN120 BKN/// 22/17 Q1017 NOSIG
RJAA 310530Z 15011KT 9999 FEW025 SCT150 BKN/// 22/17 Q1018 NOSIG
RJAA 310500Z 18009KT 140V220 9999 FEW025 SCT160 BKN/// 23/17 Q1018 NOSIG RMK 1CU025 3AC160 A3007
RJAA 310430Z 15011KT 9999 SCT025 BKN/// 23/17 Q1018 NOSIG
RJAA 310400Z 17009KT 9999 SCT025 BKN/// 23/18 Q1018 NOSIG RMK 4CU025 A3008
RJAA 310330Z 16011KT 140V210 9999 SCT025 BKN/// 23/17 Q1019 NOSIG
RJAA 310300Z 15011KT 9999 FEW025 BKN/// 23/17 Q1019 NOSIG RMK 2CU025 A3010
RJAA 310230Z 16011KT 130V190 9999 FEW025 BKN/// 23/17 Q1020 NOSIG
RJAA 310200Z 17011KT 9999 FEW025 SCT170 BKN/// 23/17 Q1020 NOSIG RMK 2CU025 4AC170 A3013
RJAA 310130Z 16009KT 9999 FEW025 BKN/// 23/17 Q1020 NOSIG
RJAA 310100Z 18009KT 140V210 9999 FEW025 BKN180 22/17 Q1020 NOSIG RMK 2CU025 7AC180 A3013
RJAA 310030Z 17007KT 140V210 9999 FEW025 BKN/// 22/17 Q1020 NOSIG
RJAA 310000Z 15009KT 9999 FEW020 BKN/// 22/17 Q1020 NOSIG RMK 2CU020 A3014
RJAA 302330Z 15009KT 9999 FEW020 BKN/// 22/18 Q1020 NOSIG RMK 1CU020 A3014
RJAA 302300Z 14006KT 9999 FEW020 BKN/// 21/19 Q1020 NOSIG
RJAA 302230Z 15005KT 9999 FEW020 BKN/// 20/19 Q1020 NOSIG RMK 1CU020 A3015
RJAA 302200Z 14004KT 9999 FEW020 BKN/// 19/18 Q1020 NOSIG
RJAA 302130Z 13003KT 9999 FEW020 BKN/// 18/18 Q1020 NOSIG
RJAA 302100Z 14002KT 9999 FEW020 BKN/// 17/17 Q1021 NOSIG RMK 1CU020 A3015
RJAA 302030Z 13003KT 9999 FEW020 BKN/// 16/16 Q1020 NOSIG
RJAA 302000Z 13003KT 9999 FEW020 BKN/// 16/16 Q1020 NOSIG RMK 1CU020 A3014
RJAA 301930Z 14003KT 9999 MIFG NSC 15/15 Q1020 NOSIG RMK A3014